createdAt,value
2018-08-30T00:01:54.418Z,1.43
2018-08-30T00:04:29.027Z,1.93
2018-08-30T00:07:03.733Z,2.10
2018-08-30T00:09:38.369Z,2.00
2018-08-30T00:12:13.122Z,2.47
2018-08-30T00:14:47.708Z,3.20
2018-08-30T00:17:22.599Z,3.10
2018-08-30T00:19:57.153Z,3.53
2018-08-30T00:22:31.730Z,4.47
2018-08-30T00:25:06.441Z,2.60
2018-08-30T00:27:41.070Z,2.43
2018-08-30T00:30:15.830Z,3.10
2018-08-30T00:32:50.369Z,2.27
2018-08-30T00:35:24.935Z,2.20
2018-08-30T00:37:59.498Z,2.27
2018-08-30T00:40:34.029Z,1.73
2018-08-30T00:43:08.675Z,2.93
2018-08-30T00:45:43.263Z,1.80
2018-08-30T00:48:17.846Z,1.70
2018-08-30T00:50:52.531Z,1.83
2018-08-30T00:53:27.069Z,2.50
2018-08-30T00:56:01.606Z,1.97
2018-08-30T00:58:36.133Z,1.70
2018-08-30T01:01:10.877Z,3.70
2018-08-30T01:03:45.526Z,3.10
2018-08-30T01:06:20.342Z,2.03
2018-08-30T01:08:54.914Z,2.43
2018-08-30T01:11:29.573Z,2.13
2018-08-30T01:14:04.249Z,3.60
2018-08-30T01:16:38.814Z,2.40
2018-08-30T01:19:13.715Z,2.80
2018-08-30T01:21:48.343Z,3.67
2018-08-30T01:24:23.451Z,3.47
2018-08-30T01:26:58.114Z,2.83
2018-08-30T01:29:32.790Z,4.00
2018-08-30T01:32:07.504Z,2.90
2018-08-30T01:34:42.156Z,4.70
2018-08-30T01:37:16.807Z,3.57
2018-08-30T01:39:51.274Z,3.93
2018-08-30T01:42:26.056Z,3.57
2018-08-30T01:45:00.550Z,3.70
2018-08-30T01:47:35.316Z,4.30
2018-08-30T01:50:10.000Z,4.80
2018-08-30T01:52:44.490Z,4.50
2018-08-30T01:55:19.174Z,5.03
2018-08-30T01:57:53.798Z,3.50
2018-08-30T02:00:28.750Z,3.33
2018-08-30T02:03:03.383Z,3.97
2018-08-30T02:05:38.139Z,3.30
2018-08-30T02:08:12.887Z,3.67
2018-08-30T02:10:47.794Z,4.13
2018-08-30T02:13:22.315Z,4.33
2018-08-30T02:15:56.763Z,4.27
2018-08-30T02:18:31.434Z,4.73
2018-08-30T02:21:06.239Z,4.40
2018-08-30T02:23:40.785Z,6.40
2018-08-30T02:26:15.768Z,3.67
2018-08-30T02:28:50.387Z,3.63
2018-08-30T02:31:25.281Z,2.40
2018-08-30T02:33:59.786Z,2.63
2018-08-30T02:36:34.303Z,2.33
2018-08-30T02:39:09.658Z,3.83
2018-08-30T02:41:44.343Z,3.30
2018-08-30T02:44:18.979Z,2.20
2018-08-30T02:46:53.515Z,2.30
2018-08-30T02:49:28.089Z,3.93
2018-08-30T02:52:02.803Z,2.50
2018-08-30T02:54:37.523Z,2.17
2018-08-30T02:57:12.068Z,3.67
2018-08-30T02:59:46.587Z,2.30
2018-08-30T03:02:21.634Z,2.90
2018-08-30T03:04:56.167Z,2.90
2018-08-30T03:07:30.932Z,2.80
2018-08-30T03:10:05.478Z,2.83
2018-08-30T03:12:40.155Z,2.83
2018-08-30T03:15:15.634Z,5.83
2018-08-30T03:17:50.230Z,3.33
2018-08-30T03:20:24.756Z,3.37
2018-08-30T03:22:59.434Z,3.30
2018-08-30T03:25:34.107Z,2.50
2018-08-30T03:28:08.782Z,3.63
2018-08-30T03:30:43.574Z,4.10
2018-08-30T03:33:18.052Z,2.57
2018-08-30T03:35:52.762Z,6.13
2018-08-30T03:38:27.421Z,2.87
2018-08-30T03:41:01.995Z,7.63
2018-08-30T03:43:36.632Z,4.23
2018-08-30T03:46:05.726Z,7.30
2018-08-30T03:48:34.754Z,3.40
2018-08-30T03:51:03.889Z,3.07
2018-08-30T03:53:32.967Z,3.97
2018-08-30T03:56:01.996Z,3.77
2018-08-30T03:58:31.021Z,3.37
2018-08-30T04:01:00.026Z,4.80
2018-08-30T04:03:29.052Z,4.83
2018-08-30T04:05:58.420Z,3.70
2018-08-30T04:08:27.633Z,4.53
2018-08-30T04:10:56.659Z,2.73
2018-08-30T04:13:25.738Z,3.83
2018-08-30T04:15:54.759Z,3.85
2018-08-30T04:18:23.794Z,3.17
2018-08-30T04:20:52.779Z,3.77
2018-08-30T04:23:21.778Z,3.83
2018-08-30T04:25:50.823Z,3.33
2018-08-30T04:28:19.852Z,3.37
2018-08-30T04:30:48.895Z,4.07
2018-08-30T04:33:17.892Z,4.50
2018-08-30T04:35:47.164Z,2.93
2018-08-30T04:38:16.170Z,3.50
2018-08-30T04:40:45.204Z,3.87
2018-08-30T04:43:14.421Z,3.60
2018-08-30T04:45:43.439Z,8.80
2018-08-30T04:48:12.435Z,4.03
2018-08-30T04:50:41.532Z,4.60
2018-08-30T04:53:10.646Z,5.23
2018-08-30T04:55:39.647Z,5.60
2018-08-30T04:58:08.643Z,4.73
2018-08-30T05:00:37.686Z,3.20
2018-08-30T05:03:06.719Z,4.10
2018-08-30T05:05:35.715Z,3.37
2018-08-30T05:08:04.802Z,4.03
2018-08-30T05:10:33.834Z,5.17
2018-08-30T05:13:02.869Z,5.67
2018-08-30T05:15:32.023Z,4.13
2018-08-30T05:18:01.139Z,5.80
2018-08-30T05:20:30.204Z,4.70
2018-08-30T05:22:59.239Z,5.23
2018-08-30T05:25:28.211Z,4.67
2018-08-30T05:27:57.534Z,5.83
2018-08-30T05:30:26.538Z,4.33
2018-08-30T05:32:55.555Z,4.90
2018-08-30T05:35:24.582Z,5.87
2018-08-30T05:37:53.616Z,7.90
2018-08-30T05:40:22.648Z,10.83
2018-08-30T05:42:51.670Z,9.67
2018-08-30T05:45:20.666Z,12.27
2018-08-30T05:47:49.835Z,11.53
2018-08-30T05:50:18.842Z,12.40
2018-08-30T05:52:47.895Z,11.83
2018-08-30T05:55:16.978Z,13.20
2018-08-30T05:57:46.029Z,14.00
2018-08-30T06:00:15.120Z,13.97
2018-08-30T06:02:44.137Z,15.50
2018-08-30T06:05:13.154Z,14.70
2018-08-30T06:07:42.217Z,12.87
2018-08-30T06:10:11.250Z,13.50
2018-08-30T06:12:40.275Z,13.10
2018-08-30T06:15:09.384Z,11.60
2018-08-30T06:17:38.394Z,13.67
2018-08-30T06:20:07.452Z,13.90
2018-08-30T06:22:36.476Z,13.67
2018-08-30T06:25:05.706Z,12.37
2018-08-30T06:27:34.754Z,13.73
2018-08-30T06:30:03.852Z,12.27
2018-08-30T06:32:32.955Z,18.87
2018-08-30T06:35:02.057Z,11.70
2018-08-30T06:37:31.211Z,14.37
2018-08-30T06:40:00.199Z,15.83
2018-08-30T06:42:29.205Z,13.97
2018-08-30T06:44:58.234Z,15.47
2018-08-30T06:47:27.239Z,14.43
2018-08-30T06:49:56.235Z,13.50
2018-08-30T06:52:25.287Z,15.23
2018-08-30T06:54:54.284Z,13.03
2018-08-30T06:57:23.297Z,13.63
2018-08-30T06:59:52.343Z,16.37
2018-08-30T07:02:21.397Z,15.07
2018-08-30T07:04:50.454Z,14.07
2018-08-30T07:07:19.520Z,12.10
2018-08-30T07:09:48.622Z,13.17
2018-08-30T07:12:17.578Z,13.00
2018-08-30T07:14:46.659Z,17.53
2018-08-30T07:17:15.735Z,13.73
2018-08-30T07:19:44.728Z,11.20
2018-08-30T07:22:13.782Z,13.10
2018-08-30T07:24:42.815Z,16.80
2018-08-30T07:27:11.846Z,11.47
2018-08-30T07:29:40.947Z,13.40
2018-08-30T07:32:09.947Z,13.43
2018-08-30T07:34:39.049Z,12.70
2018-08-30T07:37:08.085Z,14.13
2018-08-30T07:39:37.167Z,15.97
2018-08-30T07:42:06.417Z,14.50
2018-08-30T07:44:35.482Z,15.80
2018-08-30T07:47:05.157Z,13.43
2018-08-30T07:49:34.170Z,11.27
2018-08-30T07:52:03.196Z,12.87
2018-08-30T07:54:32.304Z,12.53
2018-08-30T07:57:01.294Z,12.03
2018-08-30T07:59:30.366Z,17.00
2018-08-30T08:01:59.352Z,10.97
2018-08-30T08:04:28.407Z,11.07
2018-08-30T08:06:57.443Z,11.10
2018-08-30T08:09:26.420Z,9.60
2018-08-30T08:11:55.532Z,12.50
2018-08-30T08:14:24.518Z,10.70
2018-08-30T08:16:53.587Z,12.17
2018-08-30T08:19:23.553Z,9.90
2018-08-30T08:21:52.663Z,12.10
2018-08-30T08:24:21.723Z,9.97
2018-08-30T08:26:50.714Z,10.10
2018-08-30T08:29:20.054Z,12.50
2018-08-30T08:31:49.102Z,10.17
2018-08-30T08:34:18.116Z,10.03
2018-08-30T08:36:47.195Z,9.40
2018-08-30T08:39:17.091Z,12.07
2018-08-30T08:41:46.101Z,10.30
2018-08-30T08:44:15.450Z,9.33
2018-08-30T08:46:44.491Z,9.50
2018-08-30T08:49:13.492Z,8.63
2018-08-30T08:51:42.948Z,10.00
2018-08-30T08:54:11.939Z,9.53
2018-08-30T08:56:40.975Z,10.83
2018-08-30T08:59:10.225Z,10.33
2018-08-30T09:01:39.255Z,10.03
2018-08-30T09:04:08.244Z,8.50
2018-08-30T09:06:37.250Z,9.50
2018-08-30T09:09:08.554Z,8.73
2018-08-30T09:11:37.575Z,9.40
2018-08-30T09:14:06.570Z,9.43
2018-08-30T09:16:35.689Z,11.43
2018-08-30T09:19:05.191Z,10.47
2018-08-30T09:21:34.392Z,9.53
2018-08-30T09:24:03.436Z,9.40
2018-08-30T09:26:32.434Z,13.10
2018-08-30T09:29:01.463Z,9.77
2018-08-30T09:31:30.523Z,9.63
2018-08-30T09:33:59.611Z,9.03
2018-08-30T09:36:28.579Z,9.67
2018-08-30T09:38:57.635Z,8.37
2018-08-30T09:41:26.654Z,9.77
2018-08-30T09:43:55.726Z,8.63
2018-08-30T09:46:24.884Z,9.77
2018-08-30T09:48:53.909Z,8.43
2018-08-30T09:51:22.931Z,9.60
2018-08-30T09:53:52.012Z,10.90
2018-08-30T09:56:21.099Z,8.47
2018-08-30T09:58:50.090Z,8.23
2018-08-30T10:01:24.398Z,8.40
2018-08-30T10:03:53.456Z,9.93
2018-08-30T10:06:22.658Z,9.63
2018-08-30T10:08:51.664Z,7.80
2018-08-30T10:11:20.660Z,8.47
2018-08-30T10:13:49.706Z,9.17
2018-08-30T10:16:18.779Z,7.30
2018-08-30T10:18:47.824Z,8.20
2018-08-30T10:21:16.927Z,6.80
2018-08-30T10:23:45.999Z,7.80
2018-08-30T10:26:15.025Z,7.33
2018-08-30T10:28:44.077Z,7.33
2018-08-30T10:31:13.111Z,7.77
2018-08-30T10:33:42.195Z,9.17
2018-08-30T10:36:12.171Z,7.63
2018-08-30T10:38:41.307Z,8.90
2018-08-30T10:41:10.376Z,7.43
2018-08-30T10:43:39.399Z,7.87
2018-08-30T10:46:08.474Z,10.90
2018-08-30T10:48:37.555Z,9.50
2018-08-30T10:51:06.606Z,8.30
2018-08-30T10:53:35.971Z,8.13
2018-08-30T10:56:05.404Z,8.70
2018-08-30T10:58:34.439Z,12.97
2018-08-30T11:01:03.447Z,10.07
2018-08-30T11:03:32.585Z,8.20
2018-08-30T11:06:01.655Z,8.33
2018-08-30T11:08:30.694Z,8.33
2018-08-30T11:10:59.762Z,9.73
2018-08-30T11:13:28.892Z,13.30
2018-08-30T11:15:57.995Z,11.63
2018-08-30T11:18:26.991Z,10.40
2018-08-30T11:20:56.453Z,9.20
2018-08-30T11:23:25.482Z,10.50
2018-08-30T11:25:54.516Z,8.27
2018-08-30T11:28:23.599Z,7.60
2018-08-30T11:30:52.615Z,7.47
2018-08-30T11:33:22.080Z,8.30
2018-08-30T11:35:51.140Z,7.90
2018-08-30T11:38:20.163Z,13.57
2018-08-30T11:40:49.543Z,9.70
2018-08-30T11:43:18.654Z,8.77
2018-08-30T11:45:47.658Z,9.43
2018-08-30T11:48:16.790Z,11.00
2018-08-30T11:50:45.830Z,8.13
2018-08-30T11:53:14.919Z,8.40
2018-08-30T11:55:44.021Z,8.37
2018-08-30T11:58:13.065Z,9.50
2018-08-30T12:00:42.647Z,8.33
2018-08-30T12:03:11.738Z,10.23
2018-08-30T12:05:41.110Z,10.47
2018-08-30T12:08:10.504Z,7.67
2018-08-30T12:10:40.751Z,8.67
2018-08-30T12:13:09.821Z,8.53
2018-08-30T12:15:39.352Z,7.63
2018-08-30T12:18:10.032Z,19.80
2018-08-30T12:20:39.140Z,8.57
2018-08-30T12:23:08.151Z,9.97
2018-08-30T12:25:37.207Z,11.00
2018-08-30T12:28:06.272Z,7.50
2018-08-30T12:30:35.372Z,10.13
2018-08-30T12:33:04.450Z,7.63
2018-08-30T12:35:33.511Z,8.80
2018-08-30T12:38:02.857Z,9.83
2018-08-30T12:40:31.946Z,8.23
2018-08-30T12:43:01.144Z,8.80
2018-08-30T12:45:30.548Z,7.53
2018-08-30T12:47:59.691Z,10.53
2018-08-30T12:50:29.036Z,7.57
2018-08-30T12:52:58.078Z,7.67
2018-08-30T12:55:27.103Z,8.57
2018-08-30T12:57:56.176Z,8.83
2018-08-30T13:00:25.291Z,8.67
2018-08-30T13:02:54.592Z,8.00
2018-08-30T13:05:23.868Z,8.53
2018-08-30T13:07:52.833Z,10.37
2018-08-30T13:10:22.001Z,9.10
2018-08-30T13:12:51.162Z,8.03
2018-08-30T13:15:20.437Z,7.93
2018-08-30T13:17:49.451Z,12.30
2018-08-30T13:20:18.479Z,8.80
2018-08-30T13:22:48.095Z,8.60
2018-08-30T13:25:17.312Z,6.93
2018-08-30T13:27:46.277Z,6.03
2018-08-30T13:30:15.375Z,7.10
2018-08-30T13:32:44.411Z,6.33
2018-08-30T13:35:13.518Z,5.60
2018-08-30T13:37:42.708Z,7.53
2018-08-30T13:40:11.740Z,7.10
2018-08-30T13:42:40.480Z,6.70
2018-08-30T13:45:10.185Z,5.60
2018-08-30T13:47:39.047Z,6.90
2018-08-30T13:50:08.442Z,9.07
2018-08-30T13:52:38.978Z,5.40
2018-08-30T13:55:07.910Z,6.83
2018-08-30T13:57:37.469Z,9.83
2018-08-30T14:00:06.367Z,4.80
2018-08-30T14:02:35.109Z,4.70
2018-08-30T14:05:04.538Z,5.87
2018-08-30T14:07:33.315Z,6.13
2018-08-30T14:10:02.974Z,7.10
2018-08-30T14:12:31.992Z,7.20
2018-08-30T14:15:01.199Z,5.57
2018-08-30T14:17:29.773Z,4.97
2018-08-30T14:19:58.764Z,6.27
2018-08-30T14:22:28.226Z,4.03
2018-08-30T14:24:57.227Z,5.83
2018-08-30T14:27:26.299Z,6.67
2018-08-30T14:29:55.346Z,5.70
2018-08-30T14:32:24.416Z,6.57
2018-08-30T14:34:53.394Z,6.73
2018-08-30T14:37:22.559Z,4.80
2018-08-30T14:39:51.736Z,5.63
2018-08-30T14:42:21.360Z,6.43
2018-08-30T14:44:50.334Z,5.90
2018-08-30T14:47:19.625Z,5.63
2018-08-30T14:49:48.641Z,5.37
2018-08-30T14:52:17.937Z,6.90
2018-08-30T14:54:46.792Z,5.67
2018-08-30T14:57:15.845Z,5.50
2018-08-30T14:59:45.062Z,4.83
2018-08-30T15:02:14.012Z,4.90
2018-08-30T15:04:43.065Z,5.30
2018-08-30T15:07:12.125Z,5.83
2018-08-30T15:09:41.154Z,6.07
2018-08-30T15:12:10.272Z,6.83
2018-08-30T15:14:39.350Z,4.00
2018-08-30T15:17:08.737Z,6.33
2018-08-30T15:19:37.627Z,5.50
2018-08-30T15:22:06.787Z,5.73
2018-08-30T15:24:35.858Z,6.90
2018-08-30T15:27:04.885Z,5.03
2018-08-30T15:29:33.982Z,6.03
2018-08-30T15:32:03.035Z,5.13
2018-08-30T15:34:32.211Z,6.37
2018-08-30T15:37:01.234Z,8.93
2018-08-30T15:39:30.522Z,5.57
2018-08-30T15:41:59.661Z,5.53
2018-08-30T15:44:28.691Z,5.67
2018-08-30T15:46:59.651Z,6.37
2018-08-30T15:49:28.897Z,5.00
2018-08-30T15:51:57.952Z,6.50
2018-08-30T15:54:26.995Z,5.27
2018-08-30T15:56:56.063Z,7.13
2018-08-30T15:59:25.624Z,6.07
2018-08-30T16:01:54.470Z,7.40
2018-08-30T16:04:23.492Z,6.67
2018-08-30T16:06:52.613Z,5.80
2018-08-30T16:09:21.693Z,6.60
2018-08-30T16:11:50.767Z,7.53
2018-08-30T16:14:19.761Z,6.30
2018-08-30T16:16:48.792Z,6.83
2018-08-30T16:19:17.910Z,8.03
2018-08-30T16:21:46.914Z,6.53
2018-08-30T16:24:16.058Z,7.13
2018-08-30T16:26:45.115Z,6.83
2018-08-30T16:29:14.289Z,8.07
2018-08-30T16:31:43.611Z,7.57
2018-08-30T16:34:12.682Z,7.53
2018-08-30T16:36:41.706Z,7.13
2018-08-30T16:39:11.803Z,7.50
2018-08-30T16:41:41.117Z,8.27
2018-08-30T16:44:10.162Z,7.00
2018-08-30T16:46:39.294Z,6.07
2018-08-30T16:49:08.774Z,10.33
2018-08-30T16:51:37.791Z,10.60
2018-08-30T16:54:06.861Z,6.97
2018-08-30T16:56:35.905Z,7.50
2018-08-30T16:59:05.116Z,9.13
2018-08-30T17:01:34.225Z,7.30
2018-08-30T17:04:03.274Z,5.90
2018-08-30T17:06:32.566Z,7.53
2018-08-30T17:09:01.390Z,7.83
2018-08-30T17:11:30.414Z,5.80
2018-08-30T17:13:59.714Z,5.93
2018-08-30T17:16:28.723Z,6.83
2018-08-30T17:19:07.595Z,5.60
2018-08-30T17:21:36.615Z,5.10
2018-08-30T17:24:05.776Z,6.00
2018-08-30T17:26:34.850Z,5.07
2018-08-30T17:29:03.870Z,8.57
2018-08-30T17:31:32.943Z,5.40
2018-08-30T17:34:01.978Z,5.73
2018-08-30T17:36:30.955Z,5.83
2018-08-30T17:38:59.983Z,7.27
2018-08-30T17:41:28.999Z,5.20
2018-08-30T17:43:58.202Z,5.73
2018-08-30T17:46:27.208Z,6.27
2018-08-30T17:48:56.210Z,4.43
2018-08-30T17:51:25.296Z,5.13
2018-08-30T17:53:54.318Z,8.30
2018-08-30T17:56:23.357Z,5.63
2018-08-30T17:58:52.459Z,6.53
2018-08-30T18:01:21.557Z,8.80
2018-08-30T18:03:50.528Z,7.57
2018-08-30T18:06:19.611Z,6.80
2018-08-30T18:08:48.612Z,7.77
2018-08-30T18:11:17.618Z,6.40
2018-08-30T18:13:46.651Z,7.93
2018-08-30T18:16:15.684Z,6.20
2018-08-30T18:18:44.734Z,6.47
2018-08-30T18:21:13.739Z,6.97
2018-08-30T18:23:42.743Z,8.53
2018-08-30T18:26:11.899Z,5.73
2018-08-30T18:28:40.913Z,6.43
2018-08-30T18:31:09.930Z,8.57
2018-08-30T18:33:39.002Z,6.90
2018-08-30T18:36:08.008Z,9.80
2018-08-30T18:38:37.102Z,8.57
2018-08-30T18:41:06.270Z,7.03
2018-08-30T18:43:35.336Z,9.03
2018-08-30T18:46:04.418Z,7.53
2018-08-30T18:48:33.435Z,8.97
2018-08-30T18:51:02.453Z,10.50
2018-08-30T18:53:31.483Z,5.83
2018-08-30T18:56:00.546Z,11.27
2018-08-30T18:58:29.592Z,8.00
2018-08-30T19:00:58.634Z,4.87
2018-08-30T19:03:27.654Z,5.83
2018-08-30T19:05:57.304Z,5.57
2018-08-30T19:08:26.342Z,5.80
2018-08-30T19:10:55.343Z,6.73
2018-08-30T19:13:24.574Z,6.37
2018-08-30T19:15:58.947Z,6.90
2018-08-30T19:18:33.279Z,5.97
2018-08-30T19:21:02.308Z,8.10
2018-08-30T19:23:31.370Z,7.40
2018-08-30T19:26:00.427Z,8.30
2018-08-30T19:28:29.450Z,6.20
2018-08-30T19:30:58.526Z,7.50
2018-08-30T19:33:27.628Z,9.30
2018-08-30T19:36:02.262Z,13.07
2018-08-30T19:38:31.279Z,24.33
2018-08-30T19:41:05.527Z,23.60
2018-08-30T19:43:34.579Z,18.47
2018-08-30T19:46:03.676Z,14.40
2018-08-30T19:48:32.695Z,9.67
2018-08-30T19:51:01.744Z,16.87
2018-08-30T19:53:30.825Z,8.60
2018-08-30T19:55:59.803Z,7.07
2018-08-30T19:58:28.929Z,7.60
2018-08-30T20:00:57.940Z,7.67
2018-08-30T20:03:27.259Z,6.63
2018-08-30T20:05:56.266Z,7.53
2018-08-30T20:08:25.281Z,5.37
2018-08-30T20:10:54.626Z,10.07
2018-08-30T20:13:23.646Z,8.53
2018-08-30T20:15:52.697Z,5.70
2018-08-30T20:18:21.747Z,5.83
2018-08-30T20:20:50.770Z,9.37
2018-08-30T20:23:19.843Z,8.13
2018-08-30T20:25:48.842Z,11.80
2018-08-30T20:28:17.866Z,10.20
2018-08-30T20:30:46.918Z,8.57
2018-08-30T20:33:15.916Z,11.23
2018-08-30T20:35:45.015Z,9.33
2018-08-30T20:38:14.095Z,6.13
2018-08-30T20:40:43.130Z,6.80
2018-08-30T20:43:12.258Z,7.30
2018-08-30T20:45:41.278Z,7.57
2018-08-30T20:48:10.635Z,7.17
2018-08-30T20:50:39.675Z,6.83
2018-08-30T20:53:08.696Z,8.03
2018-08-30T20:55:37.718Z,8.17
2018-08-30T20:58:07.230Z,13.13
2018-08-30T21:00:36.219Z,10.63
2018-08-30T21:03:05.276Z,8.13
2018-08-30T21:05:39.996Z,7.50
2018-08-30T21:08:14.530Z,11.33
2018-08-30T21:10:49.201Z,9.60
2018-08-30T21:13:23.814Z,8.03
2018-08-30T21:15:58.360Z,12.40
2018-08-30T21:18:33.023Z,9.10
2018-08-30T21:21:07.813Z,8.00
2018-08-30T21:23:42.620Z,8.07
2018-08-30T21:26:17.287Z,8.20
2018-08-30T21:28:51.814Z,10.30
2018-08-30T21:31:26.339Z,13.00
2018-08-30T21:34:01.083Z,10.43
2018-08-30T21:36:35.907Z,9.30
2018-08-30T21:39:10.678Z,7.00
2018-08-30T21:41:45.312Z,7.40
2018-08-30T21:44:19.855Z,7.63
2018-08-30T21:46:54.534Z,10.80
2018-08-30T21:49:29.049Z,8.33
2018-08-30T21:52:03.552Z,9.60
2018-08-30T21:54:38.310Z,8.70
2018-08-30T21:57:12.903Z,7.63
2018-08-30T21:59:47.956Z,9.00
2018-08-30T22:02:22.606Z,9.50
2018-08-30T22:04:57.298Z,7.33
2018-08-30T22:07:32.683Z,7.77
2018-08-30T22:10:07.315Z,10.30
2018-08-30T22:12:41.950Z,6.67
2018-08-30T22:15:16.454Z,9.20
2018-08-30T22:17:51.161Z,8.67
2018-08-30T22:20:25.710Z,9.00
2018-08-30T22:23:00.301Z,8.47
2018-08-30T22:25:34.976Z,15.90
2018-08-30T22:28:09.518Z,8.40
2018-08-30T22:30:44.082Z,7.70
2018-08-30T22:33:19.015Z,11.00
2018-08-30T22:35:53.540Z,8.03
2018-08-30T22:38:28.206Z,7.80
2018-08-30T22:41:02.819Z,8.40
2018-08-30T22:43:37.810Z,8.77
2018-08-30T22:46:12.430Z,6.83
2018-08-30T22:48:47.381Z,6.50
2018-08-30T22:51:22.099Z,7.60
2018-08-30T22:53:56.665Z,6.13
2018-08-30T22:56:31.115Z,8.70
2018-08-30T22:59:05.856Z,7.70
2018-08-30T23:01:40.734Z,7.97
2018-08-30T23:04:15.263Z,8.77
2018-08-30T23:06:50.011Z,7.30
2018-08-30T23:09:24.674Z,8.57
2018-08-30T23:11:59.395Z,9.00
2018-08-30T23:14:34.008Z,10.60
2018-08-30T23:17:08.506Z,8.73
2018-08-30T23:19:43.040Z,6.60
2018-08-30T23:22:17.595Z,7.33
2018-08-30T23:24:52.110Z,8.30
2018-08-30T23:27:26.827Z,8.77
2018-08-30T23:30:01.303Z,9.50
2018-08-30T23:32:35.947Z,7.00
2018-08-30T23:35:10.587Z,8.70
2018-08-30T23:37:45.148Z,9.00
2018-08-30T23:40:19.606Z,8.47
2018-08-30T23:42:54.107Z,7.77
2018-08-30T23:45:28.747Z,7.40
2018-08-30T23:48:03.311Z,7.00
2018-08-30T23:50:37.877Z,7.57
2018-08-30T23:53:12.518Z,8.40
2018-08-30T23:55:47.190Z,6.77
2018-08-30T23:58:33.211Z,9.07
